Time;durP1;ratioP1;P1;durP2;ratioP2;P2;SDS_P1;SDS_P2;PMS_P1;PMS_P2;Temp;Humidity;BMP_temperature;BMP_pressure;BME280_temperature;BME280_humidity;BME280_pressure;Samples;Min_cycle;Max_cycle;Signal;HPM_P1;HPM_P2
2023/01/25 00:01:13;;;;;;;1.15;1.15;;;2.90;99.90;;;;;;5055615;28;20519;-69
2023/01/25 00:03:39;;;;;;;0.30;0.30;;;2.90;99.60;;;;;;5055032;28;20249;-69
2023/01/25 00:06:04;;;;;;;2.83;2.73;;;3.00;99.70;;;;;;5053907;28;20177;-69
2023/01/25 00:08:32;;;;;;;0.60;0.60;;;3.10;99.50;;;;;;5054802;28;20213;-70
2023/01/25 00:10:57;;;;;;;1.20;0.55;;;3.20;99.30;;;;;;5055151;28;20627;-70
2023/01/25 00:13:23;;;;;;;1.23;1.23;;;3.20;99.10;;;;;;5053765;28;20178;-69
2023/01/25 00:15:49;;;;;;;0.37;0.37;;;3.30;99.00;;;;;;5055344;28;20240;-69
2023/01/25 00:18:14;;;;;;;1.80;0.90;;;3.20;99.00;;;;;;5055234;28;20174;-70
2023/01/25 00:20:40;;;;;;;0.60;0.60;;;3.20;98.80;;;;;;5054603;28;20252;-69
2023/01/25 00:23:05;;;;;;;1.47;1.47;;;3.00;98.90;;;;;;5054624;28;20185;-69
2023/01/25 00:25:31;;;;;;;0.40;0.40;;;3.00;99.20;;;;;;5054400;28;20173;-69
2023/01/25 00:27:56;;;;;;;0.37;0.37;;;2.90;99.10;;;;;;5054353;28;20688;-69
2023/01/25 00:30:22;;;;;;;0.30;0.30;;;2.90;99.40;;;;;;5054932;28;20192;-69
2023/01/25 00:32:56;;;;;;;0.53;0.53;;;2.80;99.60;;;;;;5054582;28;20718;-69
2023/01/25 00:35:22;;;;;;;0.82;0.82;;;2.90;99.70;;;;;;5054612;28;20201;-69
2023/01/25 00:37:51;;;;;;;1.67;1.57;;;3.00;99.80;;;;;;5054518;28;20637;-69
2023/01/25 00:40:17;;;;;;;0.60;0.60;;;2.90;99.60;;;;;;5054627;28;20192;-69
2023/01/25 00:42:42;;;;;;;0.60;0.60;;;2.90;99.70;;;;;;5054226;28;20700;-70
2023/01/25 00:45:10;;;;;;;0.40;0.40;;;2.90;99.90;;;;;;5054434;28;20435;-69
2023/01/25 00:47:36;;;;;;;0.30;0.30;;;3.00;99.80;;;;;;5054487;28;20228;-69
2023/01/25 00:50:01;;;;;;;4.27;0.77;;;2.80;99.70;;;;;;5054183;28;20221;-69
2023/01/25 00:52:27;;;;;;;0.63;0.63;;;2.70;99.90;;;;;;5053946;28;20173;-69
2023/01/25 00:54:54;;;;;;;0.40;0.40;;;2.30;99.90;;;;;;5054387;28;20546;-69
2023/01/25 00:57:19;;;;;;;0.50;0.50;;;2.10;99.90;;;;;;5054641;28;20264;-69
2023/01/25 00:59:46;;;;;;;0.40;0.40;;;2.10;99.90;;;;;;5054396;28;20252;-69
2023/01/25 01:02:12;;;;;;;0.70;0.70;;;2.20;99.90;;;;;;5054049;28;20196;-69
2023/01/25 01:04:37;;;;;;;0.50;0.50;;;2.20;99.90;;;;;;5054123;28;20174;-69
2023/01/25 01:07:03;;;;;;;0.83;0.67;;;2.40;99.90;;;;;;5052716;28;20198;-69
2023/01/25 01:09:29;;;;;;;2.83;2.00;;;2.50;99.90;;;;;;5053955;28;20262;-69
2023/01/25 01:11:54;;;;;;;0.30;0.30;;;2.60;99.90;;;;;;5053918;28;20623;-69
2023/01/25 01:14:21;;;;;;;0.30;0.30;;;2.60;99.90;;;;;;5054316;28;20525;-69
2023/01/25 01:16:47;;;;;;;1.85;1.75;;;2.50;99.90;;;;;;5054333;28;20174;-69
2023/01/25 01:19:14;;;;;;;0.50;0.50;;;2.70;99.90;;;;;;5053603;28;20751;-69
2023/01/25 01:21:40;;;;;;;1.00;1.00;;;2.80;99.90;;;;;;5053644;28;20176;-69
2023/01/25 01:24:07;;;;;;;0.80;0.80;;;3.00;99.90;;;;;;5053913;28;20191;-69
2023/01/25 01:26:32;;;;;;;0.40;0.40;;;2.80;99.70;;;;;;5052690;28;20170;-69
2023/01/25 01:28:58;;;;;;;1.67;1.57;;;2.70;99.90;;;;;;5054084;28;20639;-69
2023/01/25 01:31:24;;;;;;;0.90;0.90;;;2.80;99.90;;;;;;5054241;28;20173;-69
2023/01/25 01:33:51;;;;;;;3.17;2.23;;;2.80;99.90;;;;;;5053425;28;20247;-69
2023/01/25 01:36:19;;;;;;;2.45;1.17;;;2.70;99.90;;;;;;5053634;28;20245;-69
2023/01/25 01:38:45;;;;;;;0.40;0.40;;;2.60;99.90;;;;;;5053331;28;20194;-69
2023/01/25 01:41:11;;;;;;;0.40;0.40;;;2.60;99.90;;;;;;5053992;28;20215;-69
2023/01/25 01:43:38;;;;;;;1.70;1.60;;;2.40;99.90;;;;;;5053378;28;20177;-69
2023/01/25 01:46:24;;;;;;;0.95;0.95;;;2.30;99.90;;;;;;5053439;28;20174;-69
2023/01/25 01:49:08;;;;;;;0.40;0.40;;;2.30;99.90;;;;;;5053328;28;20233;-69
2023/01/25 01:51:49;;;;;;;0.50;0.50;;;2.20;99.90;;;;;;5053314;28;20195;-69
2023/01/25 01:54:15;;;;;;;2.05;1.95;;;2.10;99.90;;;;;;5053937;28;20173;-69
2023/01/25 01:56:52;;;;;;;0.60;0.60;;;2.10;99.90;;;;;;5053501;28;20640;-69
2023/01/25 01:59:20;;;;;;;3.40;3.10;;;2.20;99.90;;;;;;5052224;28;20197;-69
2023/01/25 02:01:45;;;;;;;1.40;1.30;;;2.10;99.90;;;;;;5053374;28;20184;-69
2023/01/25 02:04:12;;;;;;;0.40;0.40;;;1.80;99.90;;;;;;5053604;28;20252;-69
2023/01/25 02:06:45;;;;;;;3.58;0.90;;;1.80;99.90;;;;;;5053694;28;20289;-69
2023/01/25 02:09:13;;;;;;;0.40;0.40;;;2.00;99.90;;;;;;5053211;28;20193;-69
2023/01/25 02:11:39;;;;;;;2.35;2.25;;;2.00;99.90;;;;;;5053216;28;20177;-69
2023/01/25 02:14:05;;;;;;;0.98;0.98;;;2.30;99.90;;;;;;5052172;28;20210;-69
2023/01/25 02:16:31;;;;;;;1.10;1.08;;;2.40;99.90;;;;;;5053406;28;20657;-69
2023/01/25 02:19:01;;;;;;;0.40;0.40;;;2.40;99.90;;;;;;5053218;28;20212;-69
2023/01/25 02:21:34;;;;;;;2.35;0.73;;;2.50;99.90;;;;;;5053703;28;20249;-69
2023/01/25 02:24:15;;;;;;;0.30;0.30;;;2.50;99.90;;;;;;5052997;28;20179;-69
2023/01/25 02:26:42;;;;;;;0.60;0.60;;;2.30;99.90;;;;;;5053292;28;20680;-69
2023/01/25 02:29:09;;;;;;;0.40;0.40;;;2.30;99.90;;;;;;5053178;28;20230;-69
2023/01/25 02:31:34;;;;;;;0.70;0.70;;;2.10;99.90;;;;;;5053608;28;20166;-69
2023/01/25 02:34:00;;;;;;;0.30;0.30;;;2.00;99.90;;;;;;5051645;28;20200;-69
2023/01/25 02:36:31;;;;;;;0.40;0.40;;;2.10;99.90;;;;;;5053064;28;20161;-69
2023/01/25 02:39:04;;;;;;;0.40;0.40;;;2.20;99.90;;;;;;5053080;28;20558;-69
2023/01/25 02:41:38;;;;;;;0.40;0.40;;;2.20;99.90;;;;;;5053232;28;20255;-69
2023/01/25 02:44:12;;;;;;;0.40;0.40;;;2.10;99.90;;;;;;5053375;28;20222;-69
2023/01/25 02:46:40;;;;;;;0.50;0.50;;;2.20;99.90;;;;;;5052782;28;20327;-69
2023/01/25 02:49:07;;;;;;;0.40;0.40;;;2.10;99.90;;;;;;5053467;28;20198;-69
2023/01/25 02:51:36;;;;;;;2.03;0.80;;;2.00;99.90;;;;;;5056697;28;20204;-69
2023/01/25 02:54:05;;;;;;;0.30;0.30;;;2.00;99.90;;;;;;5056659;28;20169;-69
2023/01/25 02:56:30;;;;;;;3.38;0.82;;;2.10;99.90;;;;;;5056843;28;20181;-69
2023/01/25 02:58:56;;;;;;;0.40;0.40;;;2.20;99.90;;;;;;5055478;28;20268;-69
2023/01/25 03:01:22;;;;;;;0.30;0.30;;;2.10;99.90;;;;;;5056308;28;20173;-69
2023/01/25 03:03:48;;;;;;;0.30;0.30;;;2.10;99.90;;;;;;5056218;28;20204;-69
2023/01/25 03:06:13;;;;;;;0.30;0.30;;;2.10;99.90;;;;;;5056455;28;20209;-69
2023/01/25 03:08:40;;;;;;;0.40;0.40;;;2.10;99.90;;;;;;5056335;28;20208;-69
2023/01/25 03:11:07;;;;;;;4.72;1.25;;;2.10;99.90;;;;;;5056668;28;20400;-69
2023/01/25 03:13:33;;;;;;;2.05;1.95;;;2.20;99.90;;;;;;5055798;28;20224;-69
2023/01/25 03:16:05;;;;;;;0.30;0.30;;;2.20;99.90;;;;;;5056037;28;20523;-69
2023/01/25 03:18:32;;;;;;;0.40;0.40;;;2.20;99.90;;;;;;5055985;28;20183;-69
2023/01/25 03:21:13;;;;;;;0.50;0.50;;;2.30;99.90;;;;;;5055053;28;20205;-69
2023/01/25 03:23:40;;;;;;;0.40;0.40;;;2.30;99.90;;;;;;5055545;28;20169;-69
2023/01/25 03:26:12;;;;;;;0.32;0.32;;;2.20;99.90;;;;;;5055938;28;20164;-69
2023/01/25 03:28:39;;;;;;;0.75;0.75;;;2.30;99.90;;;;;;5055781;28;20208;-69
2023/01/25 03:31:06;;;;;;;0.30;0.30;;;2.20;99.90;;;;;;5055962;28;20181;-69
2023/01/25 03:33:32;;;;;;;0.95;0.95;;;1.90;99.90;;;;;;5055819;28;20172;-69
2023/01/25 03:35:58;;;;;;;1.13;1.13;;;1.80;99.90;;;;;;5056142;28;20164;-69
2023/01/25 03:38:24;;;;;;;0.50;0.50;;;1.80;99.90;;;;;;5055865;28;20486;-69
2023/01/25 03:40:50;;;;;;;0.40;0.40;;;1.80;99.90;;;;;;5055535;28;20901;-69
2023/01/25 03:43:16;;;;;;;0.40;0.40;;;2.00;99.90;;;;;;5055503;28;20807;-69
2023/01/25 03:45:42;;;;;;;0.40;0.40;;;2.00;99.90;;;;;;5055684;28;20188;-69
2023/01/25 03:48:07;;;;;;;1.00;1.00;;;2.20;99.90;;;;;;5054422;28;20205;-69
2023/01/25 03:50:33;;;;;;;0.40;0.40;;;2.10;99.90;;;;;;5055517;28;20938;-69
2023/01/25 03:53:06;;;;;;;0.90;0.90;;;2.10;99.90;;;;;;5055063;28;20203;-69
2023/01/25 03:55:35;;;;;;;0.40;0.40;;;2.10;99.90;;;;;;5054188;28;20892;-69
2023/01/25 03:58:00;;;;;;;0.40;0.40;;;2.00;99.90;;;;;;5055443;28;20178;-69
2023/01/25 04:00:26;;;;;;;0.40;0.40;;;2.00;99.90;;;;;;5055393;28;20269;-69
2023/01/25 04:02:52;;;;;;;0.40;0.40;;;2.00;99.90;;;;;;5054964;28;20222;-69
2023/01/25 04:05:17;;;;;;;0.30;0.30;;;1.90;99.90;;;;;;5055123;28;20166;-69
2023/01/25 04:07:43;;;;;;;1.37;1.27;;;2.00;99.90;;;;;;5055090;28;20228;-69
2023/01/25 04:10:09;;;;;;;0.40;0.40;;;2.00;99.90;;;;;;5055019;28;20651;-69
2023/01/25 04:12:35;;;;;;;0.50;0.50;;;2.10;99.90;;;;;;5054756;28;20165;-69
2023/01/25 04:15:01;;;;;;;0.40;0.40;;;2.00;99.90;;;;;;5055164;28;20618;-69
2023/01/25 04:17:26;;;;;;;0.63;0.63;;;2.00;99.90;;;;;;5055149;28;20169;-69
2023/01/25 04:19:52;;;;;;;0.30;0.30;;;1.90;99.90;;;;;;5054577;28;20204;-69
2023/01/25 04:22:18;;;;;;;0.30;0.30;;;2.00;99.90;;;;;;5055230;28;20586;-69
2023/01/25 04:24:43;;;;;;;0.40;0.40;;;1.90;99.90;;;;;;5054762;28;20191;-69
2023/01/25 04:27:09;;;;;;;0.83;0.83;;;1.70;99.90;;;;;;5054735;28;20465;-69
2023/01/25 04:29:35;;;;;;;0.60;0.60;;;1.70;99.90;;;;;;5054936;28;20583;-69
2023/01/25 04:32:01;;;;;;;0.40;0.40;;;1.90;99.90;;;;;;5054644;28;20164;-69
2023/01/25 04:34:27;;;;;;;0.30;0.30;;;2.00;99.90;;;;;;5055003;28;20410;-69
2023/01/25 04:36:52;;;;;;;0.30;0.30;;;2.00;99.90;;;;;;5055090;28;20640;-69
2023/01/25 04:39:18;;;;;;;0.43;0.43;;;1.70;99.90;;;;;;5054581;28;20199;-69
2023/01/25 04:41:44;;;;;;;0.37;0.37;;;1.50;99.90;;;;;;5054344;28;20410;-69
2023/01/25 04:44:10;;;;;;;0.97;0.70;;;1.50;99.90;;;;;;5054715;28;20399;-69
2023/01/25 04:46:36;;;;;;;0.40;0.40;;;1.60;99.90;;;;;;5054537;28;20863;-69
2023/01/25 04:49:01;;;;;;;0.30;0.30;;;1.80;99.90;;;;;;5054152;28;20434;-69
2023/01/25 04:51:27;;;;;;;0.40;0.40;;;1.90;99.90;;;;;;5054043;28;20686;-69
2023/01/25 04:53:53;;;;;;;0.40;0.40;;;1.90;99.90;;;;;;5053909;28;20624;-69
2023/01/25 04:56:18;;;;;;;0.40;0.40;;;1.80;99.90;;;;;;5052969;28;20177;-69
2023/01/25 04:58:44;;;;;;;0.40;0.40;;;1.80;99.90;;;;;;5054269;28;20199;-69
2023/01/25 05:01:10;;;;;;;0.40;0.40;;;1.70;99.90;;;;;;5054518;28;20169;-69
2023/01/25 05:03:36;;;;;;;0.50;0.50;;;1.50;99.90;;;;;;5053925;28;20194;-69
2023/01/25 05:06:01;;;;;;;0.40;0.40;;;1.50;99.90;;;;;;5054500;28;20235;-69
2023/01/25 05:08:27;;;;;;;1.13;1.13;;;1.50;99.90;;;;;;5053974;28;20212;-69
2023/01/25 05:10:52;;;;;;;0.40;0.40;;;1.30;99.90;;;;;;5054064;28;20216;-69
2023/01/25 05:13:18;;;;;;;2.00;0.77;;;1.40;99.90;;;;;;5053485;28;20648;-69
2023/01/25 05:15:44;;;;;;;3.23;2.93;;;1.50;99.90;;;;;;5054195;28;20252;-69
2023/01/25 05:18:09;;;;;;;0.50;0.50;;;1.40;99.90;;;;;;5054294;28;20606;-69
2023/01/25 05:20:35;;;;;;;0.40;0.40;;;1.60;99.90;;;;;;5053660;28;20211;-69
2023/01/25 05:23:01;;;;;;;1.90;1.80;;;1.70;99.90;;;;;;5053556;28;20223;-69
2023/01/25 05:28:10;;;;;;;0.38;0.38;;;2.10;99.90;;;;;;5053872;28;20458;-69
2023/01/25 05:30:36;;;;;;;0.30;0.30;;;2.00;99.90;;;;;;5054062;28;20192;-68
2023/01/25 05:33:02;;;;;;;0.40;0.40;;;1.90;99.90;;;;;;5053436;28;20172;-69
2023/01/25 05:35:27;;;;;;;0.30;0.30;;;1.90;99.90;;;;;;5053571;28;20209;-69
2023/01/25 05:37:57;;;;;;;0.70;0.70;;;2.00;99.90;;;;;;5053650;28;20182;-69
2023/01/25 05:40:23;;;;;;;3.03;2.83;;;1.90;99.90;;;;;;5053733;28;20219;-69
2023/01/25 05:42:56;;;;;;;0.30;0.30;;;1.70;99.90;;;;;;5053267;28;20184;-69
2023/01/25 05:45:21;;;;;;;0.30;0.30;;;1.70;99.90;;;;;;5053373;28;20176;-69
2023/01/25 05:47:52;;;;;;;1.30;1.27;;;1.90;99.90;;;;;;5053511;28;20631;-69
2023/01/25 05:50:17;;;;;;;0.50;0.50;;;2.00;99.90;;;;;;5052233;28;20556;-69
2023/01/25 05:52:45;;;;;;;0.40;0.40;;;2.10;99.90;;;;;;5053164;28;20203;-69
2023/01/25 05:55:10;;;;;;;0.50;0.50;;;2.10;99.90;;;;;;5052382;28;20646;-70
2023/01/25 05:57:36;;;;;;;0.67;0.67;;;2.10;99.90;;;;;;5052584;28;20192;-69
2023/01/25 06:00:03;;;;;;;0.60;0.50;;;2.20;99.90;;;;;;5053840;28;20192;-69
2023/01/25 06:02:29;;;;;;;0.60;0.60;;;2.10;99.90;;;;;;5053047;28;20178;-69
2023/01/25 06:04:54;;;;;;;0.40;0.40;;;1.70;99.90;;;;;;5053416;28;20180;-69
2023/01/25 06:07:20;;;;;;;0.63;0.63;;;1.70;99.90;;;;;;5053409;28;20204;-69
2023/01/25 06:09:45;;;;;;;2.10;1.13;;;1.60;99.90;;;;;;5053159;28;20180;-69
2023/01/25 06:12:11;;;;;;;0.63;0.63;;;1.70;99.90;;;;;;5053382;28;20167;-69
2023/01/25 06:14:37;;;;;;;0.40;0.40;;;1.60;99.90;;;;;;5053720;28;20167;-68
2023/01/25 06:17:02;;;;;;;0.40;0.40;;;1.60;99.90;;;;;;5051907;28;20626;-69
2023/01/25 06:19:28;;;;;;;0.57;0.57;;;1.70;99.90;;;;;;5052898;28;20290;-69
2023/01/25 06:21:53;;;;;;;0.50;0.50;;;1.90;99.90;;;;;;5053126;28;20180;-69
2023/01/25 06:24:19;;;;;;;0.40;0.40;;;2.00;99.90;;;;;;5054346;28;20204;-69
2023/01/25 06:26:45;;;;;;;0.30;0.30;;;1.60;99.90;;;;;;5057340;28;20204;-69
2023/01/25 06:29:10;;;;;;;0.40;0.40;;;1.50;99.90;;;;;;5056923;28;20585;-69
2023/01/25 06:31:36;;;;;;;1.13;0.53;;;1.50;99.90;;;;;;5057038;28;20218;-69
2023/01/25 06:34:05;;;;;;;0.40;0.40;;;1.40;99.90;;;;;;5056759;28;20529;-69
2023/01/25 06:36:31;;;;;;;0.40;0.40;;;1.50;99.90;;;;;;5057026;28;20169;-69
2023/01/25 06:38:57;;;;;;;0.30;0.30;;;1.70;99.90;;;;;;5056970;28;20193;-69
2023/01/25 06:41:22;;;;;;;1.33;0.70;;;1.60;99.90;;;;;;5056624;28;20184;-69
2023/01/25 06:43:51;;;;;;;1.23;1.13;;;1.50;99.90;;;;;;5056530;28;20798;-69
2023/01/25 06:46:17;;;;;;;0.30;0.30;;;1.40;99.90;;;;;;5056742;28;20180;-69
2023/01/25 06:48:43;;;;;;;0.30;0.30;;;1.40;99.90;;;;;;5056379;28;20207;-69
2023/01/25 06:51:11;;;;;;;0.60;0.50;;;1.30;99.90;;;;;;5056387;28;20230;-68
2023/01/25 06:53:39;;;;;;;0.40;0.40;;;1.20;99.90;;;;;;5056638;28;20171;-69
2023/01/25 06:56:11;;;;;;;0.32;0.32;;;1.40;99.90;;;;;;5056935;28;20172;-69
2023/01/25 06:58:37;;;;;;;0.50;0.50;;;1.60;99.90;;;;;;5056846;28;20537;-69
2023/01/25 07:01:25;;;;;;;0.50;0.50;;;1.80;99.90;;;;;;5056399;28;20230;-69
2023/01/25 07:03:54;;;;;;;0.40;0.40;;;1.90;99.90;;;;;;5056357;28;20173;-69
2023/01/25 07:06:20;;;;;;;9.07;2.13;;;2.20;99.90;;;;;;5056678;28;20204;-69
2023/01/25 07:08:46;;;;;;;0.50;0.50;;;2.20;99.90;;;;;;5055917;28;20205;-69
2023/01/25 07:11:13;;;;;;;0.93;0.93;;;2.20;99.90;;;;;;5056293;28;20231;-69
2023/01/25 07:13:40;;;;;;;0.43;0.43;;;2.30;99.90;;;;;;5055986;28;20166;-69
2023/01/25 07:16:10;;;;;;;1.25;1.13;;;2.40;99.90;;;;;;5056178;28;20169;-69
2023/01/25 07:18:39;;;;;;;0.40;0.40;;;2.20;99.80;;;;;;5055754;28;20200;-69
2023/01/25 07:21:16;;;;;;;0.60;0.60;;;2.40;99.90;;;;;;5056165;28;20163;-69
2023/01/25 07:23:42;;;;;;;1.58;0.60;;;2.50;99.70;;;;;;5055835;28;20157;-69
2023/01/25 07:26:16;;;;;;;0.43;0.43;;;2.20;99.30;;;;;;5055909;28;20170;-69
2023/01/25 07:28:42;;;;;;;1.05;0.95;;;2.10;99.90;;;;;;5055795;28;20454;-69
2023/01/25 07:31:08;;;;;;;3.28;1.15;;;2.30;99.90;;;;;;5055688;28;20189;-69
2023/01/25 07:33:34;;;;;;;0.40;0.40;;;2.10;99.70;;;;;;5055499;28;20167;-69
2023/01/25 07:36:05;;;;;;;0.67;0.67;;;2.10;99.90;;;;;;5055819;28;20167;-69
2023/01/25 07:38:31;;;;;;;0.50;0.50;;;2.30;99.90;;;;;;5055523;28;20407;-69
2023/01/25 07:40:56;;;;;;;0.40;0.40;;;2.40;99.70;;;;;;5055795;28;20178;-69
2023/01/25 07:43:22;;;;;;;1.00;0.70;;;2.40;99.60;;;;;;5055588;28;20252;-69
2023/01/25 07:45:48;;;;;;;0.93;0.93;;;2.50;99.60;;;;;;5055877;28;20678;-71
2023/01/25 07:48:15;;;;;;;0.30;0.30;;;2.60;99.60;;;;;;5054693;28;20454;-71
2023/01/25 07:50:41;;;;;;;1.75;1.75;;;2.60;99.10;;;;;;5055494;28;20189;-71
2023/01/25 07:53:07;;;;;;;0.40;0.40;;;2.50;99.00;;;;;;5055254;28;20169;-68
2023/01/25 07:55:33;;;;;;;0.40;0.40;;;2.40;99.10;;;;;;5055294;28;20448;-69
2023/01/25 07:58:02;;;;;;;0.77;0.77;;;2.40;99.20;;;;;;5055520;28;20213;-69
2023/01/25 08:00:27;;;;;;;1.30;1.20;;;2.30;99.30;;;;;;5055566;28;20431;-68
2023/01/25 08:02:53;;;;;;;0.40;0.40;;;2.50;99.50;;;;;;5055087;28;20182;-69
2023/01/25 08:05:19;;;;;;;3.13;3.03;;;2.80;99.40;;;;;;5055210;28;20178;-69
2023/01/25 08:07:45;;;;;;;0.73;0.73;;;3.10;98.80;;;;;;5053777;28;20245;-68
2023/01/25 08:10:11;;;;;;;0.82;0.82;;;3.00;98.30;;;;;;5055180;28;20194;-68
2023/01/25 08:12:37;;;;;;;0.40;0.40;;;2.80;98.20;;;;;;5054805;28;20219;-68
2023/01/25 08:15:03;;;;;;;0.40;0.40;;;2.90;98.50;;;;;;5054899;28;20577;-68
2023/01/25 08:17:32;;;;;;;0.68;0.68;;;3.20;98.80;;;;;;5054653;28;20412;-69
2023/01/25 08:19:59;;;;;;;2.97;2.80;;;3.40;98.00;;;;;;5054697;28;20220;-69
2023/01/25 08:22:25;;;;;;;0.50;0.50;;;3.40;97.30;;;;;;5054660;28;20224;-69
2023/01/25 08:24:51;;;;;;;1.25;1.15;;;3.30;97.30;;;;;;5054928;28;20226;-69
2023/01/25 08:27:17;;;;;;;4.03;1.70;;;3.10;97.50;;;;;;5054919;28;20233;-69
2023/01/25 08:29:42;;;;;;;2.73;2.63;;;3.30;97.80;;;;;;5054997;28;20217;-69
2023/01/25 08:32:08;;;;;;;3.20;1.37;;;3.50;97.80;;;;;;5054685;28;20630;-69
2023/01/25 08:34:34;;;;;;;0.40;0.40;;;3.70;97.40;;;;;;5054506;28;20194;-70
2023/01/25 08:37:00;;;;;;;0.80;0.80;;;3.90;97.60;;;;;;5054756;28;20615;-69
2023/01/25 08:39:26;;;;;;;0.60;0.60;;;4.10;97.10;;;;;;5054576;28;20431;-68
2023/01/25 08:41:51;;;;;;;0.73;0.70;;;4.20;96.30;;;;;;5054103;28;20839;-71
2023/01/25 08:44:21;;;;;;;0.40;0.40;;;4.20;96.20;;;;;;5053691;28;20415;-71
2023/01/25 08:46:47;;;;;;;0.40;0.40;;;4.40;96.20;;;;;;5053764;28;20411;-71
2023/01/25 08:49:12;;;;;;;3.67;1.80;;;4.70;96.20;;;;;;5054106;28;20190;-71
2023/01/25 08:51:38;;;;;;;0.40;0.40;;;4.90;95.60;;;;;;5054410;28;20397;-71
2023/01/25 08:54:06;;;;;;;6.80;2.97;;;5.00;95.10;;;;;;5052307;28;20252;-71
2023/01/25 08:56:31;;;;;;;0.57;0.57;;;5.00;94.60;;;;;;5054418;28;20223;-71
2023/01/25 08:58:57;;;;;;;0.50;0.50;;;5.20;94.60;;;;;;5053155;28;20197;-70
2023/01/25 09:01:23;;;;;;;0.40;0.40;;;5.40;94.20;;;;;;5054506;28;20167;-68
2023/01/25 09:03:50;;;;;;;0.83;0.83;;;5.50;93.80;;;;;;5053368;28;20182;-70
2023/01/25 09:06:16;;;;;;;4.65;1.00;;;5.30;93.10;;;;;;5054026;28;20227;-69
2023/01/25 09:08:42;;;;;;;0.90;0.90;;;5.00;93.20;;;;;;5053897;28;20623;-69
2023/01/25 09:11:14;;;;;;;1.35;1.25;;;4.90;93.50;;;;;;5054251;28;20171;-69
2023/01/25 09:13:42;;;;;;;0.88;0.88;;;4.80;94.00;;;;;;5053545;28;20636;-68
2023/01/25 09:16:11;;;;;;;1.33;1.33;;;5.10;94.10;;;;;;5053942;28;20179;-69
2023/01/25 09:18:38;;;;;;;1.48;1.40;;;5.40;93.90;;;;;;5053522;28;20182;-69
2023/01/25 09:21:17;;;;;;;0.50;0.50;;;5.50;93.20;;;;;;5054198;28;20247;-69
2023/01/25 09:23:43;;;;;;;0.90;0.90;;;5.70;92.60;;;;;;5054052;28;20173;-69
2023/01/25 09:26:10;;;;;;;0.52;0.52;;;5.50;92.80;;;;;;5053945;28;20189;-69
2023/01/25 09:28:36;;;;;;;2.47;1.95;;;5.50;93.30;;;;;;5053348;28;20244;-69
2023/01/25 09:31:04;;;;;;;0.50;0.50;;;5.70;93.20;;;;;;5053646;28;20225;-69
2023/01/25 09:33:35;;;;;;;1.30;1.20;;;5.70;92.50;;;;;;5053595;28;20543;-69
2023/01/25 09:36:02;;;;;;;0.50;0.50;;;5.90;92.40;;;;;;5053856;28;20231;-71
2023/01/25 09:38:27;;;;;;;0.68;0.68;;;5.70;91.90;;;;;;5053871;28;20201;-71
2023/01/25 09:41:30;;;;;;;0.83;0.83;;;5.50;92.10;;;;;;5052760;28;20210;-71
2023/01/25 09:44:32;;;;;;;0.47;0.47;;;5.60;92.40;;;;;;5053512;28;20221;-71
2023/01/25 09:47:01;;;;;;;1.20;1.15;;;5.60;92.30;;;;;;5053671;28;20195;-71
2023/01/25 09:49:39;;;;;;;0.80;0.80;;;5.90;92.80;;;;;;5053500;28;20195;-71
2023/01/25 09:52:39;;;;;;;1.05;1.05;;;6.40;92.00;;;;;;5053402;28;20242;-71
2023/01/25 09:55:13;;;;;;;1.48;1.40;;;6.80;91.30;;;;;;5053999;28;20178;-71
2023/01/25 09:57:43;;;;;;;1.05;1.05;;;7.50;91.00;;;;;;5053891;28;20184;-69
2023/01/25 10:00:29;;;;;;;1.47;1.17;;;8.50;90.00;;;;;;5057158;28;20190;-72
2023/01/25 10:03:04;;;;;;;2.93;1.27;;;10.00;84.10;;;;;;5057391;28;20400;-70
2023/01/25 10:05:36;;;;;;;1.17;1.00;;;11.50;77.30;;;;;;5057674;28;20398;-69
2023/01/25 10:08:20;;;;;;;0.80;0.80;;;12.50;72.10;;;;;;5057732;28;20444;-71
2023/01/25 10:10:49;;;;;;;0.87;0.87;;;13.70;67.60;;;;;;5057414;28;20428;-71
2023/01/25 10:13:20;;;;;;;4.13;0.90;;;14.50;62.70;;;;;;5056962;28;20398;-70
2023/01/25 10:15:51;;;;;;;0.50;0.50;;;14.70;59.50;;;;;;5057309;28;20453;-70
2023/01/25 10:18:44;;;;;;;0.87;0.87;;;14.70;58.50;;;;;;5057620;28;20392;-69
2023/01/25 10:21:16;;;;;;;0.77;0.70;;;14.60;57.40;;;;;;5057117;28;20401;-70
2023/01/25 10:24:20;;;;;;;0.73;0.73;;;14.00;57.50;;;;;;5057154;28;20415;-70
2023/01/25 10:26:55;;;;;;;1.03;0.80;;;13.30;58.50;;;;;;5056915;28;20829;-68
2023/01/25 10:29:26;;;;;;;0.80;0.80;;;12.60;59.20;;;;;;5056021;28;20428;-68
2023/01/25 10:31:54;;;;;;;4.73;1.17;;;11.90;60.00;;;;;;5056565;28;20841;-68
2023/01/25 10:34:28;;;;;;;1.27;1.17;;;10.90;61.70;;;;;;5056909;28;20458;-68
2023/01/25 10:36:55;;;;;;;0.40;0.40;;;10.10;64.60;;;;;;5056875;28;20520;-68
2023/01/25 10:39:21;;;;;;;2.00;1.90;;;9.50;67.90;;;;;;5056515;28;20428;-68
2023/01/25 10:41:58;;;;;;;1.03;0.90;;;9.20;70.10;;;;;;5056579;28;20401;-68
2023/01/25 10:44:27;;;;;;;6.73;1.00;;;9.30;71.10;;;;;;5056600;28;20397;-68
2023/01/25 10:47:23;;;;;;;1.60;1.50;;;9.60;71.70;;;;;;5056492;28;20893;-68
2023/01/25 10:49:57;;;;;;;3.90;1.63;;;10.60;69.70;;;;;;5056492;28;20432;-67
2023/01/25 10:52:28;;;;;;;0.87;0.87;;;11.50;65.80;;;;;;5056295;28;20829;-68
2023/01/25 10:55:15;;;;;;;0.77;0.70;;;11.60;63.60;;;;;;5056436;28;20404;-68
2023/01/25 10:57:47;;;;;;;2.27;2.13;;;11.20;63.90;;;;;;5055138;28;20413;-68
2023/01/25 11:00:27;;;;;;;1.37;1.30;;;11.30;65.00;;;;;;5056141;28;20420;-68
2023/01/25 11:02:53;;;;;;;1.03;1.03;;;11.50;64.60;;;;;;5056053;28;20403;-68
2023/01/25 11:05:28;;;;;;;1.63;1.53;;;11.80;65.70;;;;;;5056231;28;20404;-68
2023/01/25 11:07:54;;;;;;;0.97;0.73;;;12.60;63.30;;;;;;5056021;28;20543;-68
2023/01/25 11:10:35;;;;;;;1.90;0.70;;;13.30;61.30;;;;;;5055084;28;20440;-68
2023/01/25 11:13:16;;;;;;;0.63;0.63;;;13.70;59.20;;;;;;5055812;28;20757;-68
2023/01/25 11:15:44;;;;;;;1.27;1.17;;;13.90;58.30;;;;;;5055949;28;20547;-68
2023/01/25 11:18:32;;;;;;;0.53;0.53;;;13.90;57.80;;;;;;5056034;28;20409;-70
2023/01/25 11:21:18;;;;;;;0.77;0.63;;;13.30;58.20;;;;;;5055473;28;20725;-68
2023/01/25 11:23:57;;;;;;;0.60;0.60;;;12.70;59.10;;;;;;5055782;28;20889;-68
2023/01/25 11:26:23;;;;;;;1.17;1.17;;;11.90;59.90;;;;;;5054921;28;20396;-68
2023/01/25 11:28:48;;;;;;;1.40;1.30;;;11.30;62.50;;;;;;5055501;28;20456;-68
2023/01/25 11:31:21;;;;;;;2.40;1.57;;;11.20;63.80;;;;;;5056336;28;20629;-68
2023/01/25 11:33:47;;;;;;;0.40;0.40;;;11.50;63.80;;;;;;5055539;28;20169;-68
2023/01/25 11:36:34;;;;;;;0.50;0.50;;;11.80;63.10;;;;;;5055814;28;20751;-69
2023/01/25 11:39:19;;;;;;;0.73;0.73;;;12.10;61.90;;;;;;5055726;28;20478;-69
2023/01/25 11:42:09;;;;;;;0.60;0.60;;;11.90;61.80;;;;;;5055700;28;20403;-68
2023/01/25 11:45:12;;;;;;;0.70;0.70;;;10.90;63.40;;;;;;5055808;28;20401;-69
2023/01/25 11:47:59;;;;;;;0.80;0.80;;;10.10;66.00;;;;;;5055630;28;20940;-68
2023/01/25 11:50:37;;;;;;;0.60;0.60;;;9.30;69.70;;;;;;5054135;28;20456;-68
2023/01/25 11:53:32;;;;;;;1.15;1.05;;;9.30;70.60;;;;;;5055654;28;20755;-68
2023/01/25 11:56:13;;;;;;;0.88;0.77;;;9.70;71.20;;;;;;5055245;28;20167;-68
2023/01/25 11:58:52;;;;;;;1.67;1.63;;;10.20;68.00;;;;;;5055503;28;20169;-69
2023/01/25 12:01:33;;;;;;;1.60;1.50;;;10.50;67.30;;;;;;5055189;28;20170;-68
2023/01/25 12:04:05;;;;;;;1.30;1.17;;;10.70;66.80;;;;;;5055385;28;20166;-71
2023/01/25 12:06:57;;;;;;;1.35;0.75;;;10.80;66.20;;;;;;5055674;28;20171;-71
2023/01/25 12:09:55;;;;;;;2.28;1.30;;;10.50;65.80;;;;;;5055296;28;20280;-70
2023/01/25 12:12:33;;;;;;;3.00;2.00;;;10.20;67.10;;;;;;5045794;28;20261;-70
2023/01/25 12:15:17;;;;;;;1.80;1.70;;;9.90;68.50;;;;;;5055523;28;20170;-68
2023/01/25 12:18:18;;;;;;;1.70;0.98;;;9.70;69.40;;;;;;5054924;28;20170;-69
2023/01/25 12:21:37;;;;;;;3.63;1.15;;;9.50;70.30;;;;;;5053854;28;20198;-69
2023/01/25 12:24:42;;;;;;;0.65;0.65;;;9.30;70.90;;;;;;5032250;28;20593;-70
2023/01/25 12:27:30;;;;;;;0.47;0.38;;;9.10;71.50;;;;;;5022808;28;20205;-70
2023/01/25 12:30:16;;;;;;;0.80;0.80;;;8.90;72.40;;;;;;5053458;28;20282;-69
2023/01/25 12:32:52;;;;;;;0.80;0.60;;;8.70;72.70;;;;;;5054306;28;20185;-71
2023/01/25 12:35:38;;;;;;;0.60;0.60;;;8.50;73.60;;;;;;5054963;28;20248;-70
2023/01/25 12:38:18;;;;;;;1.25;1.15;;;8.40;74.80;;;;;;5054443;28;20229;-69
2023/01/25 12:40:44;;;;;;;0.60;0.60;;;8.30;75.20;;;;;;5054571;28;20200;-69
2023/01/25 12:43:23;;;;;;;1.47;0.70;;;8.40;75.70;;;;;;5054535;28;20174;-69
2023/01/25 12:45:52;;;;;;;0.93;0.93;;;8.60;75.50;;;;;;5054806;28;20170;-69
2023/01/25 12:48:35;;;;;;;1.60;1.15;;;8.70;75.20;;;;;;5054497;28;20658;-69
2023/01/25 12:51:01;;;;;;;2.35;2.17;;;8.80;74.80;;;;;;5054497;28;20542;-68
2023/01/25 12:53:35;;;;;;;0.87;0.87;;;8.90;73.80;;;;;;5054147;28;20177;-68
2023/01/25 12:56:05;;;;;;;4.32;1.23;;;8.80;73.00;;;;;;5054600;28;20249;-69
2023/01/25 12:58:42;;;;;;;2.35;2.15;;;8.60;74.30;;;;;;5054101;28;20239;-69
2023/01/25 13:01:20;;;;;;;4.63;2.22;;;8.60;74.10;;;;;;5054061;28;20154;-70
2023/01/25 13:04:09;;;;;;;1.85;1.45;;;8.50;74.20;;;;;;5052732;28;20178;-70
2023/01/25 13:06:54;;;;;;;1.02;0.93;;;7.90;75.20;;;;;;5054319;28;20170;-70
2023/01/25 13:09:44;;;;;;;0.70;0.70;;;7.90;76.50;;;;;;5053832;28;20292;-70
2023/01/25 13:12:11;;;;;;;1.70;1.60;;;8.00;76.10;;;;;;5053758;28;20712;-70
2023/01/25 13:14:39;;;;;;;1.45;1.35;;;8.10;76.00;;;;;;5054144;28;20174;-70